This is the latest recevied weather packets stored in our database for station/object BORDANYWX. If no packets are shown the sender has not sent any weather packets the latest 10 day(s).
| Time | Temp. | Humidity | Pressure | Rain* | Wind** | Luminosity | Snow |
|---|---|---|---|---|---|---|---|
| 1777924761 | 17.78° C | 43% | 1016 hPa | 0 mm | - | - | - |
| 1777924155 | 17.78° C | 43% | 1016 hPa | 0 mm | - | - | - |
| 1777923554 | 17.78° C | 43% | 1016 hPa | 0 mm | - | - | - |
| 1777922954 | 17.78° C | 43% | 1016 hPa | 0 mm | - | - | - |
| 1777922354 | 17.78° C | 43% | 1016 hPa | 0 mm | - | - | - |
| 1777921753 | 17.78° C | 43% | 1016 hPa | 0 mm | - | - | - |
| 1777921153 | 17.78° C | 43% | 1016 hPa | 0 mm | - | - | - |
| 1777920552 | 17.78° C | 43% | 1016 hPa | 0 mm | - | - | - |
| 1777919951 | 20° C | 40% | 1016 hPa | 0 mm | - | - | - |
| 1777919351 | 20° C | 40% | 1016 hPa | 0 mm | - | - | - |
| 1777918750 | 20° C | 40% | 1016 hPa | 0 mm | - | - | - |
| 1777918149 | 20° C | 40% | 1016 hPa | 0 mm | - | - | - |
| 1777917549 | 20° C | 40% | 1016 hPa | 0 mm | - | - | - |
| 1777916949 | 20° C | 40% | 1016 hPa | 0 mm | - | - | - |
| 1777916348 | 20.56° C | 39% | 1016 hPa | 0 mm | - | - | - |
| 1777915748 | 22.78° C | 33% | 1016 hPa | 0 mm | - | - | - |
| 1777915147 | 22.78° C | 33% | 1016 hPa | 0 mm | - | - | - |
| 1777914547 | 23.33° C | 34% | 1016 hPa | 0 mm | - | - | - |
| 1777913947 | 22.78° C | 36% | 1016 hPa | 0 mm | - | - | - |
| 1777913346 | 23.89° C | 30% | 1016 hPa | 0 mm | - | - | - |
| 1777912745 | 23.89° C | 30% | 1016 hPa | 0 mm | - | - | - |
| 1777912145 | 23.89° C | 30% | 1016 hPa | 0 mm | - | - | - |
| 1777911544 | 23.89° C | 30% | 1016 hPa | 0 mm | - | - | - |
| 1777910944 | 23.89° C | 30% | 1016 hPa | 0 mm | - | - | - |
| 1777910344 | 23.89° C | 30% | 1016 hPa | 0 mm | - | - | - |
* Rain latest hour (hover to see other rain measurements)
** Current wind speed in m/s (hover to see current wind gust speed)